Time;durP1;ratioP1;P1;durP2;ratioP2;P2;SDS_P1;SDS_P2;PMS_P1;PMS_P2;Temp;Humidity;BMP_temperature;BMP_pressure;BME280_temperature;BME280_humidity;BME280_pressure;Samples;Min_cycle;Max_cycle;Signal;HPM_P1;HPM_P2
2022/11/09 00:00:53;;;;;;;6.75;1.60;;;;;;;;;;5041276;28;20040;-68
2022/11/09 00:03:19;;;;;;;5.32;1.90;;;;;;;;;;5043788;28;20518;-65
2022/11/09 00:05:57;;;;;;;4.10;1.58;;;;;;;;;;5033344;28;20122;-64
2022/11/09 00:08:24;;;;;;;5.25;1.50;;;;;;;;;;5043948;28;20064;-64
2022/11/09 00:10:49;;;;;;;6.20;1.65;;;;;;;;;;5035488;28;20048;-63
2022/11/09 00:13:15;;;;;;;3.20;1.60;;;;;;;;;;5038798;28;20060;-64
2022/11/09 00:15:41;;;;;;;3.97;1.80;;;;;;;;;;5045517;28;20033;-63
2022/11/09 00:18:07;;;;;;;5.55;1.52;;;;;;;;;;5031106;28;20098;-63
2022/11/09 00:20:33;;;;;;;3.00;1.40;;;;;;;;;;5029057;28;20053;-65
2022/11/09 00:22:59;;;;;;;4.03;1.70;;;;;;;;;;5039146;28;20060;-64
2022/11/09 00:25:25;;;;;;;3.33;1.80;;;;;;;;;;5037501;28;20049;-65
2022/11/09 00:27:52;;;;;;;2.40;1.60;;;;;;;;;;5040620;28;20053;-63
2022/11/09 00:30:18;;;;;;;4.22;1.83;;;;;;;;;;5032328;28;20041;-65
2022/11/09 00:32:44;;;;;;;2.80;1.42;;;;;;;;;;5041394;28;20057;-63
2022/11/09 00:35:10;;;;;;;5.05;1.60;;;;;;;;;;5033648;28;20049;-66
2022/11/09 00:37:36;;;;;;;5.53;1.80;;;;;;;;;;5034696;28;20045;-63
2022/11/09 00:40:02;;;;;;;4.95;1.60;;;;;;;;;;5029875;28;20056;-63
2022/11/09 00:42:28;;;;;;;4.72;1.52;;;;;;;;;;5042044;28;20489;-65
2022/11/09 00:44:54;;;;;;;3.20;1.40;;;;;;;;;;5041541;28;20082;-64
2022/11/09 00:47:20;;;;;;;1.95;1.42;;;;;;;;;;5042258;28;20041;-65
2022/11/09 00:49:46;;;;;;;4.38;1.85;;;;;;;;;;5036624;28;20041;-63
2022/11/09 00:52:12;;;;;;;6.28;1.63;;;;;;;;;;5033958;28;20049;-63
2022/11/09 00:54:37;;;;;;;3.72;1.58;;;;;;;;;;5032766;28;20115;-62
2022/11/09 00:57:03;;;;;;;3.22;1.60;;;;;;;;;;5040294;28;20290;-68
2022/11/09 00:59:29;;;;;;;3.28;1.63;;;;;;;;;;5042350;28;20391;-63
2022/11/09 01:01:55;;;;;;;7.63;1.50;;;;;;;;;;5043280;28;20114;-64
2022/11/09 01:04:21;;;;;;;3.58;1.60;;;;;;;;;;5032268;28;20057;-63
2022/11/09 01:06:47;;;;;;;3.05;1.75;;;;;;;;;;5036758;28;20056;-63
2022/11/09 01:09:12;;;;;;;2.95;1.80;;;;;;;;;;5042767;28;20045;-63
2022/11/09 01:11:38;;;;;;;5.15;2.00;;;;;;;;;;5042195;28;20055;-65
2022/11/09 01:14:04;;;;;;;4.80;1.55;;;;;;;;;;5034964;28;20110;-64
2022/11/09 01:16:30;;;;;;;8.80;1.80;;;;;;;;;;5038733;28;20292;-64
2022/11/09 01:18:58;;;;;;;3.00;1.80;;;;;;;;;;5035764;28;20041;-63
2022/11/09 01:21:25;;;;;;;5.60;1.75;;;;;;;;;;5039057;28;20491;-63
2022/11/09 01:23:51;;;;;;;2.97;1.67;;;;;;;;;;5045841;28;20041;-63
2022/11/09 01:26:17;;;;;;;6.00;2.05;;;;;;;;;;5032693;28;20080;-62
2022/11/09 01:28:43;;;;;;;3.72;1.90;;;;;;;;;;5031174;28;20049;-62
2022/11/09 01:31:15;;;;;;;4.18;1.63;;;;;;;;;;5032753;28;20064;-62
2022/11/09 01:33:42;;;;;;;3.30;1.80;;;;;;;;;;5021075;28;20073;-62
2022/11/09 01:36:20;;;;;;;4.47;1.70;;;;;;;;;;5040571;28;20485;-65
2022/11/09 01:38:46;;;;;;;4.50;1.70;;;;;;;;;;5041981;28;20136;-60
2022/11/09 01:41:17;;;;;;;4.43;1.58;;;;;;;;;;5039972;28;20053;-63
2022/11/09 01:43:43;;;;;;;4.13;1.70;;;;;;;;;;5044770;28;20379;-66
2022/11/09 01:46:27;;;;;;;5.00;1.70;;;;;;;;;;5044138;28;20388;-69
2022/11/09 01:49:01;;;;;;;5.63;1.75;;;;;;;;;;5036942;28;20475;-63
2022/11/09 01:51:44;;;;;;;5.00;1.90;;;;;;;;;;5033679;28;20574;-67
2022/11/09 01:54:18;;;;;;;7.35;2.33;;;;;;;;;;5037643;28;20508;-62
2022/11/09 01:56:47;;;;;;;3.60;1.60;;;;;;;;;;5031771;28;20045;-62
2022/11/09 01:59:19;;;;;;;2.28;1.60;;;;;;;;;;5034484;28;20589;-63
2022/11/09 02:01:45;;;;;;;4.45;1.40;;;;;;;;;;5031105;28;20049;-61
2022/11/09 02:04:13;;;;;;;4.38;1.80;;;;;;;;;;5035361;28;20064;-62
2022/11/09 02:06:39;;;;;;;1.80;1.42;;;;;;;;;;5021217;28;20041;-61
2022/11/09 02:09:35;;;;;;;3.50;1.60;;;;;;;;;;5030102;28;20045;-64
2022/11/09 02:12:02;;;;;;;4.43;1.70;;;;;;;;;;5034830;28;20044;-61
2022/11/09 02:14:29;;;;;;;4.07;1.63;;;;;;;;;;5028589;28;20041;-63
2022/11/09 02:16:55;;;;;;;7.70;1.77;;;;;;;;;;5036487;28;20248;-65
2022/11/09 02:19:21;;;;;;;4.50;1.63;;;;;;;;;;5033825;28;20339;-66
2022/11/09 02:21:47;;;;;;;3.88;1.73;;;;;;;;;;5043529;28;20049;-65
2022/11/09 02:24:13;;;;;;;3.28;1.83;;;;;;;;;;5033235;28;20348;-63
2022/11/09 02:26:51;;;;;;;4.20;2.00;;;;;;;;;;5033925;28;20230;-66
2022/11/09 02:29:26;;;;;;;4.82;2.10;;;;;;;;;;5034328;28;20045;-63
2022/11/09 02:31:59;;;;;;;5.07;1.60;;;;;;;;;;5031458;28;20561;-67
2022/11/09 02:34:25;;;;;;;5.70;1.67;;;;;;;;;;5029400;28;20069;-66
2022/11/09 02:36:51;;;;;;;3.47;1.65;;;;;;;;;;5029142;28;20068;-62
2022/11/09 02:39:22;;;;;;;7.20;1.73;;;;;;;;;;5033035;28;20062;-68
2022/11/09 02:41:59;;;;;;;3.35;1.55;;;;;;;;;;5035765;28;20056;-61
2022/11/09 02:44:28;;;;;;;4.13;1.70;;;;;;;;;;5035348;28;20041;-63
2022/11/09 02:46:54;;;;;;;5.38;1.58;;;;;;;;;;5040444;28;20046;-62
2022/11/09 02:49:20;;;;;;;3.30;1.70;;;;;;;;;;5040324;28;20056;-63
2022/11/09 02:51:46;;;;;;;6.28;2.00;;;;;;;;;;5035512;28;20049;-61
2022/11/09 02:54:12;;;;;;;3.03;1.73;;;;;;;;;;5040387;28;20242;-67
2022/11/09 02:56:38;;;;;;;4.95;1.90;;;;;;;;;;5033896;28;20063;-66
2022/11/09 02:59:04;;;;;;;4.00;1.65;;;;;;;;;;5030894;28;20491;-62
2022/11/09 03:01:30;;;;;;;3.47;1.50;;;;;;;;;;5038714;28;20048;-62
2022/11/09 03:03:56;;;;;;;3.45;1.83;;;;;;;;;;5030002;28;20426;-62
2022/11/09 03:06:33;;;;;;;5.50;1.80;;;;;;;;;;5038423;28;20049;-65
2022/11/09 03:09:04;;;;;;;5.40;2.00;;;;;;;;;;5041561;28;20049;-64
2022/11/09 03:11:30;;;;;;;3.05;1.38;;;;;;;;;;5038795;28;20491;-64
2022/11/09 03:13:56;;;;;;;4.50;1.80;;;;;;;;;;5031369;28;20041;-62
2022/11/09 03:16:22;;;;;;;6.18;2.05;;;;;;;;;;5027068;28;20128;-68
2022/11/09 03:18:48;;;;;;;3.08;1.70;;;;;;;;;;5034514;28;20053;-66
2022/11/09 03:21:14;;;;;;;2.47;1.60;;;;;;;;;;5029361;28;20056;-63
2022/11/09 03:23:40;;;;;;;2.88;1.60;;;;;;;;;;5035624;28;20060;-62
2022/11/09 03:26:06;;;;;;;4.05;1.55;;;;;;;;;;5043522;28;20514;-65
2022/11/09 03:28:32;;;;;;;2.90;1.58;;;;;;;;;;5032616;28;20110;-66
2022/11/09 03:30:58;;;;;;;3.92;1.73;;;;;;;;;;5022098;28;20049;-64
2022/11/09 03:33:24;;;;;;;5.38;2.05;;;;;;;;;;5037552;28;20045;-61
2022/11/09 03:35:50;;;;;;;5.75;1.90;;;;;;;;;;5035733;28;20055;-68
2022/11/09 03:38:16;;;;;;;3.90;1.90;;;;;;;;;;5035297;28;20049;-61
2022/11/09 03:40:42;;;;;;;3.08;1.58;;;;;;;;;;5030095;28;20529;-63
2022/11/09 03:43:08;;;;;;;6.68;1.83;;;;;;;;;;5038967;28;20388;-65
2022/11/09 03:45:34;;;;;;;4.30;1.67;;;;;;;;;;5041963;28;20066;-63
2022/11/09 03:48:00;;;;;;;3.60;1.67;;;;;;;;;;5039999;28;20046;-62
2022/11/09 03:50:28;;;;;;;4.30;1.88;;;;;;;;;;5032479;28;20052;-63
2022/11/09 03:52:55;;;;;;;5.25;1.80;;;;;;;;;;5034460;28;20045;-62
2022/11/09 03:55:21;;;;;;;2.85;1.80;;;;;;;;;;5035948;28;20091;-66
2022/11/09 03:57:48;;;;;;;3.28;2.03;;;;;;;;;;5037153;28;20048;-61
2022/11/09 04:00:16;;;;;;;2.70;1.65;;;;;;;;;;5040530;28;20498;-62
2022/11/09 04:02:42;;;;;;;9.00;2.00;;;;;;;;;;5035482;28;20041;-61
2022/11/09 04:05:09;;;;;;;3.45;2.05;;;;;;;;;;5039476;28;20052;-64
2022/11/09 04:07:35;;;;;;;4.55;1.98;;;;;;;;;;5033403;28;20058;-68
2022/11/09 04:10:01;;;;;;;5.32;2.05;;;;;;;;;;5038915;28;20041;-61
2022/11/09 04:12:27;;;;;;;7.13;1.77;;;;;;;;;;5038665;28;20045;-67
2022/11/09 04:14:53;;;;;;;6.28;2.28;;;;;;;;;;5031667;28;20050;-62
2022/11/09 04:17:19;;;;;;;4.28;2.40;;;;;;;;;;5029507;28;20041;-64
2022/11/09 04:19:44;;;;;;;7.15;1.90;;;;;;;;;;5035868;28;20056;-63
2022/11/09 04:22:10;;;;;;;5.68;2.20;;;;;;;;;;5032182;28;21054;-66
2022/11/09 04:24:36;;;;;;;6.22;2.20;;;;;;;;;;5030914;28;20049;-63
2022/11/09 04:27:03;;;;;;;6.22;2.10;;;;;;;;;;5036745;28;20451;-67
2022/11/09 04:29:28;;;;;;;4.85;2.40;;;;;;;;;;5038850;28;20052;-63
2022/11/09 04:31:54;;;;;;;5.88;2.00;;;;;;;;;;5036151;28;20053;-61
2022/11/09 04:34:20;;;;;;;3.03;1.77;;;;;;;;;;5041826;28;20253;-67
2022/11/09 04:36:46;;;;;;;3.70;2.13;;;;;;;;;;5041932;28;20041;-63
2022/11/09 04:39:12;;;;;;;5.60;2.22;;;;;;;;;;5041028;28;20186;-64
2022/11/09 04:41:38;;;;;;;4.22;2.00;;;;;;;;;;5045970;28;20045;-63
2022/11/09 04:44:04;;;;;;;5.38;1.92;;;;;;;;;;5041049;28;20402;-63
2022/11/09 04:46:30;;;;;;;4.82;2.13;;;;;;;;;;5046523;28;20090;-63
2022/11/09 04:48:56;;;;;;;3.92;2.20;;;;;;;;;;5036035;28;20138;-65
2022/11/09 04:51:22;;;;;;;7.97;2.10;;;;;;;;;;5036846;28;20046;-63
2022/11/09 04:53:47;;;;;;;6.10;2.22;;;;;;;;;;5044439;28;20053;-63
2022/11/09 04:56:13;;;;;;;9.75;2.30;;;;;;;;;;5031719;28;20457;-61
2022/11/09 04:58:39;;;;;;;6.40;2.10;;;;;;;;;;5046652;28;20060;-64
2022/11/09 05:01:13;;;;;;;4.28;2.10;;;;;;;;;;5031853;28;20053;-71
2022/11/09 05:03:39;;;;;;;6.10;2.00;;;;;;;;;;5042576;28;20047;-62
2022/11/09 05:08:50;;;;;;;5.40;2.00;;;;;;;;;;5039448;28;20052;-69
2022/11/09 05:11:17;;;;;;;3.80;2.05;;;;;;;;;;5022613;28;20037;-66
2022/11/09 05:13:43;;;;;;;3.15;1.70;;;;;;;;;;5037214;28;20125;-68
2022/11/09 05:16:09;;;;;;;4.30;1.90;;;;;;;;;;5046738;28;20049;-61
2022/11/09 05:18:34;;;;;;;4.80;1.70;;;;;;;;;;5039490;28;20045;-64
2022/11/09 05:21:02;;;;;;;4.25;1.83;;;;;;;;;;5035632;28;20037;-65
2022/11/09 05:26:13;;;;;;;6.85;2.10;;;;;;;;;;5037755;28;20052;-67
2022/11/09 05:28:39;;;;;;;5.43;2.17;;;;;;;;;;5015488;28;20179;-65
2022/11/09 05:31:05;;;;;;;3.08;1.70;;;;;;;;;;5033515;28;20405;-67
2022/11/09 05:33:31;;;;;;;3.92;2.00;;;;;;;;;;5044199;28;20045;-64
2022/11/09 05:35:57;;;;;;;6.15;2.05;;;;;;;;;;5036431;28;20050;-62
2022/11/09 05:38:23;;;;;;;3.50;1.98;;;;;;;;;;5031238;28;20095;-63
2022/11/09 05:40:52;;;;;;;5.30;1.77;;;;;;;;;;5042688;28;20484;-66
2022/11/09 05:43:19;;;;;;;6.85;2.00;;;;;;;;;;5034336;28;20053;-62
2022/11/09 05:45:45;;;;;;;6.00;2.03;;;;;;;;;;5038129;28;20068;-66
2022/11/09 05:48:13;;;;;;;3.78;1.85;;;;;;;;;;5035818;28;20584;-69
2022/11/09 05:50:40;;;;;;;8.15;2.42;;;;;;;;;;5031387;28;20318;-67
2022/11/09 05:53:06;;;;;;;4.68;1.80;;;;;;;;;;5041074;28;20483;-63
2022/11/09 05:55:33;;;;;;;4.10;2.03;;;;;;;;;;5045179;28;20040;-67
2022/11/09 05:57:59;;;;;;;3.40;1.95;;;;;;;;;;5045852;28;20045;-64
2022/11/09 06:00:25;;;;;;;6.40;2.10;;;;;;;;;;5034229;28;20128;-65
2022/11/09 06:02:51;;;;;;;4.65;2.20;;;;;;;;;;5042811;28;20046;-65
2022/11/09 06:05:19;;;;;;;4.65;2.42;;;;;;;;;;5041507;28;20392;-64
2022/11/09 06:07:45;;;;;;;7.95;2.20;;;;;;;;;;5042172;28;20499;-64
2022/11/09 06:10:11;;;;;;;7.47;2.10;;;;;;;;;;5019450;28;20056;-65
2022/11/09 06:12:37;;;;;;;4.25;2.10;;;;;;;;;;5035302;28;20407;-68
2022/11/09 06:15:04;;;;;;;8.82;2.00;;;;;;;;;;5040149;28;20049;-64
2022/11/09 06:17:30;;;;;;;7.45;1.90;;;;;;;;;;5036697;28;20045;-68
2022/11/09 06:19:56;;;;;;;3.78;2.00;;;;;;;;;;5033742;28;20060;-66
2022/11/09 06:22:22;;;;;;;5.00;2.00;;;;;;;;;;5035789;28;20060;-64
2022/11/09 06:24:48;;;;;;;6.28;2.40;;;;;;;;;;5039262;28;20735;-69
2022/11/09 06:27:14;;;;;;;9.07;2.45;;;;;;;;;;5035111;28;21767;-71
2022/11/09 06:29:40;;;;;;;6.68;2.63;;;;;;;;;;5040473;28;20052;-66
2022/11/09 06:32:06;;;;;;;6.85;2.33;;;;;;;;;;5040851;28;20567;-66
2022/11/09 06:34:32;;;;;;;8.68;2.67;;;;;;;;;;5042211;28;20058;-65
2022/11/09 06:36:58;;;;;;;12.88;3.63;;;;;;;;;;5036085;28;20249;-70
2022/11/09 06:39:23;;;;;;;7.85;2.83;;;;;;;;;;5038074;28;20402;-64
2022/11/09 06:41:49;;;;;;;9.45;3.30;;;;;;;;;;5039191;28;20071;-65
2022/11/09 06:44:15;;;;;;;5.70;2.88;;;;;;;;;;5042870;28;20502;-66
2022/11/09 06:46:41;;;;;;;7.03;2.38;;;;;;;;;;5039805;28;20529;-64
2022/11/09 06:49:07;;;;;;;6.72;2.70;;;;;;;;;;5034466;28;20497;-69
2022/11/09 06:51:33;;;;;;;5.15;2.30;;;;;;;;;;5036435;28;20520;-69
2022/11/09 06:53:59;;;;;;;7.07;2.60;;;;;;;;;;5038267;28;20448;-66
2022/11/09 06:56:25;;;;;;;9.00;2.40;;;;;;;;;;5033653;28;20486;-67
2022/11/09 06:58:51;;;;;;;7.88;1.95;;;;;;;;;;5039011;28;20045;-66
2022/11/09 07:01:20;;;;;;;8.80;2.85;;;;;;;;;;5039556;28;20337;-68
2022/11/09 07:03:46;;;;;;;4.47;2.00;;;;;;;;;;5042915;28;20040;-67
2022/11/09 07:06:12;;;;;;;12.40;2.50;;;;;;;;;;5051526;28;20377;-66
2022/11/09 07:08:39;;;;;;;9.40;2.13;;;;;;;;;;5037782;28;20045;-69
2022/11/09 07:11:08;;;;;;;11.30;2.30;;;;;;;;;;5035855;28;20056;-71
2022/11/09 07:13:34;;;;;;;11.80;2.75;;;;;;;;;;5038069;28;20079;-65
2022/11/09 07:16:00;;;;;;;12.80;3.35;;;;;;;;;;5042498;28;20498;-63
2022/11/09 07:18:26;;;;;;;22.02;3.67;;;;;;;;;;5040294;28;20067;-66
2022/11/09 07:20:52;;;;;;;13.82;3.13;;;;;;;;;;5031687;28;20041;-67
2022/11/09 07:23:18;;;;;;;13.05;3.20;;;;;;;;;;5034649;28;20552;-63
2022/11/09 07:25:44;;;;;;;24.05;3.50;;;;;;;;;;5034121;28;20164;-66
2022/11/09 07:28:11;;;;;;;21.05;3.28;;;;;;;;;;5035215;28;20195;-62
2022/11/09 07:30:37;;;;;;;17.90;3.50;;;;;;;;;;5035897;28;20041;-64
2022/11/09 07:33:14;;;;;;;10.02;2.88;;;;;;;;;;5043076;28;20033;-64
2022/11/09 07:35:41;;;;;;;15.38;4.00;;;;;;;;;;5037464;28;20553;-65
2022/11/09 07:38:07;;;;;;;38.05;5.28;;;;;;;;;;5037345;28;20056;-65
2022/11/09 07:40:33;;;;;;;14.35;4.25;;;;;;;;;;5033678;28;20041;-68
2022/11/09 07:43:01;;;;;;;19.40;3.90;;;;;;;;;;5041618;28;20114;-68
2022/11/09 07:45:28;;;;;;;22.25;4.38;;;;;;;;;;5044934;28;20045;-71
2022/11/09 07:47:59;;;;;;;17.00;6.30;;;;;;;;;;5044671;28;20440;-65
2022/11/09 07:50:26;;;;;;;26.27;6.82;;;;;;;;;;5036698;28;20056;-71
2022/11/09 07:52:55;;;;;;;14.52;4.03;;;;;;;;;;5038801;28;20158;-66
2022/11/09 07:55:22;;;;;;;11.48;3.45;;;;;;;;;;5041899;28;20082;-64
2022/11/09 07:57:48;;;;;;;15.27;4.47;;;;;;;;;;5042787;28;20060;-66
2022/11/09 08:00:14;;;;;;;15.35;4.30;;;;;;;;;;5033960;28;20132;-64
2022/11/09 08:02:40;;;;;;;16.27;3.70;;;;;;;;;;5037411;28;20052;-65
2022/11/09 08:05:06;;;;;;;22.52;4.03;;;;;;;;;;5040928;28;20049;-66
2022/11/09 08:07:33;;;;;;;21.17;4.05;;;;;;;;;;5033099;28;20048;-65
2022/11/09 08:09:59;;;;;;;25.20;5.70;;;;;;;;;;5033058;28;20057;-63
2022/11/09 08:12:25;;;;;;;16.98;5.13;;;;;;;;;;5039990;28;20505;-64
2022/11/09 08:14:51;;;;;;;14.15;4.70;;;;;;;;;;5032197;28;20049;-64
2022/11/09 08:17:16;;;;;;;16.67;4.35;;;;;;;;;;5040559;28;20572;-63
2022/11/09 08:19:43;;;;;;;24.48;4.10;;;;;;;;;;5033370;28;20170;-64
2022/11/09 08:22:08;;;;;;;23.20;3.90;;;;;;;;;;5034231;28;20410;-63
2022/11/09 08:24:35;;;;;;;13.57;4.10;;;;;;;;;;5038289;28;20041;-66
2022/11/09 08:27:00;;;;;;;10.77;4.13;;;;;;;;;;5037888;28;20052;-69
2022/11/09 08:29:26;;;;;;;12.45;4.03;;;;;;;;;;5032080;28;20047;-66
2022/11/09 08:31:52;;;;;;;15.73;3.88;;;;;;;;;;5033928;28;20098;-66
2022/11/09 08:34:18;;;;;;;13.07;3.55;;;;;;;;;;5034874;28;20419;-65
2022/11/09 08:36:44;;;;;;;9.00;3.65;;;;;;;;;;5038573;28;20041;-66
2022/11/09 08:39:10;;;;;;;13.70;3.40;;;;;;;;;;5036627;28;20081;-64
2022/11/09 08:41:36;;;;;;;12.02;3.42;;;;;;;;;;5036569;28;20052;-62
2022/11/09 08:44:02;;;;;;;9.27;3.30;;;;;;;;;;5038781;28;20053;-65
2022/11/09 08:46:28;;;;;;;7.95;3.13;;;;;;;;;;5042365;28;20525;-65
2022/11/09 08:48:54;;;;;;;13.98;3.30;;;;;;;;;;5034336;28;20394;-64
2022/11/09 08:51:20;;;;;;;7.65;2.90;;;;;;;;;;5043477;28;20049;-64
2022/11/09 08:53:46;;;;;;;9.10;3.25;;;;;;;;;;5016847;28;20586;-64
2022/11/09 08:56:12;;;;;;;7.93;2.78;;;;;;;;;;5041063;28;20158;-65
2022/11/09 08:58:38;;;;;;;8.50;2.78;;;;;;;;;;5040640;28;20072;-64
2022/11/09 09:01:07;;;;;;;7.13;2.60;;;;;;;;;;5019766;28;20498;-63
2022/11/09 09:03:34;;;;;;;4.75;2.22;;;;;;;;;;5034986;28;20041;-65
2022/11/09 09:06:04;;;;;;;6.72;2.40;;;;;;;;;;5044364;28;20047;-63
2022/11/09 09:08:31;;;;;;;10.15;2.97;;;;;;;;;;5041885;28;20514;-63
2022/11/09 09:11:00;;;;;;;5.95;3.20;;;;;;;;;;5036368;28;20150;-64
2022/11/09 09:13:27;;;;;;;8.30;2.90;;;;;;;;;;5041273;28;20045;-64
2022/11/09 09:15:52;;;;;;;8.32;2.58;;;;;;;;;;5035794;28;20047;-65
2022/11/09 09:18:19;;;;;;;5.72;2.80;;;;;;;;;;5036136;28;20051;-64
2022/11/09 09:20:45;;;;;;;7.55;2.88;;;;;;;;;;5037661;28;20056;-67
2022/11/09 09:23:13;;;;;;;6.78;2.97;;;;;;;;;;5037220;28;20061;-64
2022/11/09 09:25:38;;;;;;;7.05;3.13;;;;;;;;;;5025513;28;20053;-63
2022/11/09 09:28:05;;;;;;;9.02;3.50;;;;;;;;;;5045839;28;20103;-64
2022/11/09 09:30:30;;;;;;;12.13;2.97;;;;;;;;;;5041965;28;20141;-66
2022/11/09 09:32:59;;;;;;;5.65;2.42;;;;;;;;;;5041708;28;20041;-64
2022/11/09 09:35:25;;;;;;;6.03;2.70;;;;;;;;;;5036886;28;20053;-65
2022/11/09 09:37:52;;;;;;;8.30;2.45;;;;;;;;;;5032220;28;20056;-64
2022/11/09 09:40:34;;;;;;;6.97;2.20;;;;;;;;;;5044286;28;20079;-64
2022/11/09 09:43:01;;;;;;;6.35;2.50;;;;;;;;;;5037805;28;20509;-66
2022/11/09 09:45:31;;;;;;;9.75;2.78;;;;;;;;;;5036717;28;20041;-64
2022/11/09 09:48:15;;;;;;;8.90;2.30;;;;;;;;;;5043976;28;20061;-65
2022/11/09 09:50:49;;;;;;;10.50;2.87;;;;;;;;;;5040500;28;20140;-65
2022/11/09 09:53:32;;;;;;;7.38;2.17;;;;;;;;;;5039656;28;20498;-66
2022/11/09 09:56:39;;;;;;;8.80;2.55;;;;;;;;;;5039521;28;20635;-65
2022/11/09 09:59:42;;;;;;;5.55;2.65;;;;;;;;;;4950962;28;20047;-65
2022/11/09 10:02:29;;;;;;;7.00;2.03;;;;;;;;;;4953862;28;20053;-65
2022/11/09 10:04:58;;;;;;;5.28;1.83;;;;;;;;;;4950287;28;20043;-66
2022/11/09 10:07:47;;;;;;;4.25;1.92;;;;;;;;;;4950729;28;20567;-68
2022/11/09 10:10:27;;;;;;;6.72;1.70;;;;;;;;;;4946268;28;20156;-65
2022/11/09 10:13:13;;;;;;;3.83;1.77;;;;;;;;;;4950880;28;20081;-64
2022/11/09 10:15:45;;;;;;;4.65;1.70;;;;;;;;;;4953646;28;20269;-64
2022/11/09 10:18:17;;;;;;;14.63;2.03;;;;;;;;;;4960858;28;20146;-64
2022/11/09 10:20:48;;;;;;;4.90;1.70;;;;;;;;;;4946683;28;20051;-65
2022/11/09 10:23:14;;;;;;;11.35;1.98;;;;;;;;;;4949227;28;20119;-63
2022/11/09 10:25:44;;;;;;;8.18;2.08;;;;;;;;;;4946283;28;20604;-65
2022/11/09 10:28:15;;;;;;;12.68;1.85;;;;;;;;;;4952250;28;20066;-66
2022/11/09 10:30:42;;;;;;;10.02;1.60;;;;;;;;;;5029262;28;20430;-65
2022/11/09 10:33:08;;;;;;;5.72;1.55;;;;;;;;;;5039709;28;20054;-62
2022/11/09 10:35:37;;;;;;;7.03;1.45;;;;;;;;;;5034882;28;20049;-63
2022/11/09 10:38:03;;;;;;;7.40;1.55;;;;;;;;;;5020125;28;20346;-66
2022/11/09 10:40:40;;;;;;;6.85;1.50;;;;;;;;;;5035605;28;20045;-64
2022/11/09 10:43:10;;;;;;;4.82;1.52;;;;;;;;;;5041612;28;20041;-64
2022/11/09 10:45:42;;;;;;;8.73;1.58;;;;;;;;;;5045095;28;20062;-61
2022/11/09 10:48:11;;;;;;;9.20;1.77;;;;;;;;;;5036866;28;20057;-64
2022/11/09 10:50:47;;;;;;;6.68;1.75;;;;;;;;;;5037544;28;20049;-64
2022/11/09 10:53:22;;;;;;;4.07;1.55;;;;;;;;;;5031728;28;20053;-62
2022/11/09 10:56:11;;;;;;;9.60;1.80;;;;;;;;;;5034532;28;20045;-66
2022/11/09 10:58:44;;;;;;;17.05;1.60;;;;;;;;;;5038155;28;20041;-64
2022/11/09 11:01:15;;;;;;;2.80;1.15;;;;;;;;;;5034062;28;20050;-63
2022/11/09 11:03:43;;;;;;;8.15;1.60;;;;;;;;;;5039542;28;20446;-63
2022/11/09 11:06:24;;;;;;;6.63;1.65;;;;;;;;;;5029476;28;20128;-63
2022/11/09 11:08:56;;;;;;;8.82;1.60;;;;;;;;;;5040095;28;20049;-63
2022/11/09 11:11:29;;;;;;;7.78;1.80;;;;;;;;;;5036404;28;20103;-65
2022/11/09 11:14:28;;;;;;;7.75;1.60;;;;;;;;;;5022433;28;20045;-66
2022/11/09 11:16:55;;;;;;;7.65;1.70;;;;;;;;;;5040187;28;20041;-66
2022/11/09 11:19:30;;;;;;;7.82;1.70;;;;;;;;;;5043886;28;20095;-66
2022/11/09 11:22:08;;;;;;;5.32;1.65;;;;;;;;;;5041564;28;20500;-66
2022/11/09 11:24:55;;;;;;;9.85;1.75;;;;;;;;;;5034935;28;20056;-62
2022/11/09 11:27:24;;;;;;;8.48;2.10;;;;;;;;;;5033638;28;20453;-63
2022/11/09 11:30:03;;;;;;;12.70;2.10;;;;;;;;;;5030935;28;20049;-64
2022/11/09 11:32:30;;;;;;;7.88;1.85;;;;;;;;;;5034769;28;20398;-63
2022/11/09 11:34:56;;;;;;;5.95;1.63;;;;;;;;;;5035730;28;20041;-63
2022/11/09 11:38:00;;;;;;;7.97;1.63;;;;;;;;;;5031325;28;20046;-64
2022/11/09 11:40:26;;;;;;;7.50;1.73;;;;;;;;;;5001551;28;20053;-64
2022/11/09 11:43:18;;;;;;;6.13;1.60;;;;;;;;;;5005650;28;20442;-62
2022/11/09 11:46:03;;;;;;;5.93;1.70;;;;;;;;;;5003006;28;20562;-65
2022/11/09 11:48:43;;;;;;;10.10;1.75;;;;;;;;;;5008245;28;20050;-62
2022/11/09 11:51:22;;;;;;;4.13;1.73;;;;;;;;;;4994094;28;20049;-66
2022/11/09 11:54:05;;;;;;;5.88;1.58;;;;;;;;;;5010313;28;20046;-62
2022/11/09 11:56:45;;;;;;;5.63;1.70;;;;;;;;;;5010345;28;20495;-65
2022/11/09 11:59:30;;;;;;;6.82;1.73;;;;;;;;;;5014151;28;20042;-64
2022/11/09 12:02:21;;;;;;;3.95;1.70;;;;;;;;;;5002863;28;20057;-64
2022/11/09 12:04:57;;;;;;;6.85;2.03;;;;;;;;;;5008181;28;20049;-64
2022/11/09 12:07:44;;;;;;;5.13;1.80;;;;;;;;;;5007436;28;20512;-63
2022/11/09 12:10:31;;;;;;;7.00;1.83;;;;;;;;;;5005050;28;20050;-64
2022/11/09 12:13:19;;;;;;;8.45;1.83;;;;;;;;;;5001276;28;20046;-64
2022/11/09 12:15:49;;;;;;;4.60;1.60;;;;;;;;;;5002073;28;20107;-66
2022/11/09 12:18:31;;;;;;;3.65;1.60;;;;;;;;;;5027331;28;20058;-64
2022/11/09 12:21:17;;;;;;;8.07;1.65;;;;;;;;;;5026289;28;20049;-64
2022/11/09 12:23:49;;;;;;;4.65;1.52;;;;;;;;;;5038442;28;20053;-65
2022/11/09 12:26:37;;;;;;;10.27;1.98;;;;;;;;;;5034282;28;20037;-65
2022/11/09 12:29:13;;;;;;;9.80;1.65;;;;;;;;;;5039603;28;20056;-64
2022/11/09 12:31:53;;;;;;;7.60;1.90;;;;;;;;;;5012205;28;20046;-63
2022/11/09 12:34:41;;;;;;;15.10;2.20;;;;;;;;;;5035582;28;20076;-66
2022/11/09 12:37:12;;;;;;;5.13;1.75;;;;;;;;;;5042157;28;20137;-66
2022/11/09 12:39:49;;;;;;;4.55;1.88;;;;;;;;;;5036513;28;20041;-64
2022/11/09 12:42:25;;;;;;;8.40;2.40;;;;;;;;;;5042609;28;20747;-66
2022/11/09 12:45:27;;;;;;;10.73;1.92;;;;;;;;;;5034272;28;20148;-63
2022/11/09 12:47:55;;;;;;;4.68;1.83;;;;;;;;;;4964648;28;20047;-64
2022/11/09 12:50:24;;;;;;;5.05;1.90;;;;;;;;;;4966940;28;20053;-64
2022/11/09 12:52:51;;;;;;;6.32;1.90;;;;;;;;;;4961660;28;20051;-64
2022/11/09 12:55:35;;;;;;;7.63;2.00;;;;;;;;;;4965351;28;20043;-64
2022/11/09 12:58:01;;;;;;;4.28;1.90;;;;;;;;;;4953101;28;20058;-65
2022/11/09 13:00:33;;;;;;;10.20;1.90;;;;;;;;;;4964163;28;20038;-67
2022/11/09 13:03:02;;;;;;;7.25;1.75;;;;;;;;;;4966692;28;20054;-63
2022/11/09 13:05:36;;;;;;;7.60;2.33;;;;;;;;;;4965456;28;20051;-67
2022/11/09 13:08:05;;;;;;;5.93;2.00;;;;;;;;;;4957510;28;20563;-66
2022/11/09 13:10:33;;;;;;;7.75;2.20;;;;;;;;;;4965691;28;20051;-65
2022/11/09 13:13:12;;;;;;;7.38;2.03;;;;;;;;;;4965387;28;20045;-65
2022/11/09 13:15:59;;;;;;;12.73;2.00;;;;;;;;;;4969272;28;20090;-65
2022/11/09 13:18:30;;;;;;;4.05;1.80;;;;;;;;;;4968903;28;20085;-65
2022/11/09 13:21:19;;;;;;;11.93;2.58;;;;;;;;;;4965176;28;20504;-67
2022/11/09 13:23:45;;;;;;;7.75;2.22;;;;;;;;;;4970391;28;20159;-64
2022/11/09 13:26:43;;;;;;;6.70;1.80;;;;;;;;;;5039910;28;20054;-67
2022/11/09 13:29:27;;;;;;;3.75;2.00;;;;;;;;;;5029802;28;20129;-65
2022/11/09 13:32:12;;;;;;;7.30;2.50;;;;;;;;;;5015543;28;20119;-65
2022/11/09 13:34:54;;;;;;;8.63;2.42;;;;;;;;;;5032840;28;20053;-65
2022/11/09 13:37:39;;;;;;;9.35;2.58;;;;;;;;;;5037097;28;20080;-64
2022/11/09 13:40:24;;;;;;;;;;;;;;;;;;5030278;28;20821;-66
2022/11/09 13:43:01;;;;;;;8.77;2.42;;;;;;;;;;5035604;28;19931;-64
2022/11/09 13:45:45;;;;;;;8.27;2.72;;;;;;;;;;5036884;28;20041;-71
2022/11/09 13:48:32;;;;;;;4.43;1.70;;;;;;;;;;5036538;28;20465;-67
2022/11/09 13:51:19;;;;;;;6.30;2.00;;;;;;;;;;5038235;28;20126;-68
2022/11/09 13:53:57;;;;;;;8.20;2.35;;;;;;;;;;5027780;28;20443;-67
2022/11/09 13:56:28;;;;;;;7.70;1.80;;;;;;;;;;5036177;28;20252;-66
2022/11/09 13:59:01;;;;;;;8.18;2.45;;;;;;;;;;5041011;28;20038;-63
2022/11/09 14:01:30;;;;;;;10.13;2.78;;;;;;;;;;5038317;28;20402;-65
2022/11/09 14:03:57;;;;;;;5.25;2.13;;;;;;;;;;5039443;28;20394;-64
2022/11/09 14:06:23;;;;;;;7.47;2.42;;;;;;;;;;5029158;28;20056;-64
2022/11/09 14:08:50;;;;;;;7.47;2.28;;;;;;;;;;5034149;28;20164;-65
2022/11/09 14:11:32;;;;;;;7.25;2.28;;;;;;;;;;5040482;28;20068;-68
2022/11/09 14:14:25;;;;;;;5.43;2.00;;;;;;;;;;5030665;28;20144;-68
2022/11/09 14:17:39;;;;;;;9.40;2.25;;;;;;;;;;5031241;28;20049;-66
2022/11/09 14:20:23;;;;;;;13.73;2.33;;;;;;;;;;5036865;28;20084;-67
2022/11/09 14:22:50;;;;;;;7.60;1.80;;;;;;;;;;5037265;28;20114;-64
2022/11/09 14:25:19;;;;;;;6.22;1.95;;;;;;;;;;5038277;28;20053;-64
2022/11/09 14:27:55;;;;;;;7.05;2.10;;;;;;;;;;5032254;28;20514;-66
2022/11/09 14:30:23;;;;;;;6.78;1.48;;;;;;;;;;5043715;28;20406;-66
2022/11/09 14:32:52;;;;;;;9.57;1.88;;;;;;;;;;5036456;28;20090;-67
2022/11/09 14:35:51;;;;;;;9.88;1.70;;;;;;;;;;5042882;28;20041;-66
2022/11/09 14:38:26;;;;;;;5.15;1.92;;;;;;;;;;5001926;28;20052;-66
2022/11/09 14:40:53;;;;;;;7.88;1.80;;;;;;;;;;5023186;28;20512;-64
2022/11/09 14:43:27;;;;;;;8.07;1.88;;;;;;;;;;5043195;28;20114;-65
2022/11/09 14:46:01;;;;;;;7.93;1.87;;;;;;;;;;5038638;28;20049;-64
2022/11/09 14:48:29;;;;;;;8.52;2.42;;;;;;;;;;5040148;28;20389;-67
2022/11/09 14:50:58;;;;;;;12.90;2.17;;;;;;;;;;5030304;28;20136;-65
2022/11/09 14:53:34;;;;;;;7.20;2.03;;;;;;;;;;5037744;28;20270;-67
2022/11/09 14:56:05;;;;;;;9.32;2.45;;;;;;;;;;5028051;28;20041;-66
2022/11/09 14:58:35;;;;;;;18.17;2.28;;;;;;;;;;5022412;28;20156;-67
2022/11/09 15:01:06;;;;;;;26.90;2.70;;;;;;;;;;5036998;28;20041;-66
2022/11/09 15:03:32;;;;;;;19.17;2.83;;;;;;;;;;5033562;28;20063;-67
2022/11/09 15:06:08;;;;;;;32.53;2.08;;;;;;;;;;5036795;28;20045;-69